Time;durP1;ratioP1;P1;durP2;ratioP2;P2;SDS_P1;SDS_P2;PMS_P1;PMS_P2;Temp;Humidity;BMP_temperature;BMP_pressure;BME280_temperature;BME280_humidity;BME280_pressure;Samples;Min_cycle;Max_cycle;Signal;HPM_P1;HPM_P2
2021/10/30 00:00:33;;;;;;;14.13;8.55;;;;;;;-146.90;100.00;60518.97;5030367;28;20509;-75
2021/10/30 00:02:58;;;;;;;12.35;8.48;;;;;;;-146.90;100.00;60518.97;5029195;28;20467;-75
2021/10/30 00:05:24;;;;;;;11.52;8.10;;;;;;;-146.90;100.00;60518.97;5027786;28;20025;-75
2021/10/30 00:07:49;;;;;;;12.15;8.20;;;;;;;-146.90;100.00;60518.97;5029814;28;20109;-74
2021/10/30 00:10:15;;;;;;;13.43;8.73;;;;;;;-146.90;100.00;60518.97;5028282;28;20026;-75
2021/10/30 00:12:41;;;;;;;14.30;8.68;;;;;;;-146.90;100.00;60518.97;5028680;28;20186;-75
2021/10/30 00:15:07;;;;;;;14.77;9.35;;;;;;;-146.90;100.00;60518.97;5029580;28;20025;-75
2021/10/30 00:17:32;;;;;;;13.93;8.25;;;;;;;-146.90;100.00;60518.97;5028389;28;20475;-75
2021/10/30 00:19:58;;;;;;;13.88;8.98;;;;;;;-146.90;100.00;60518.97;5029543;28;20113;-75
2021/10/30 00:22:23;;;;;;;11.23;8.30;;;;;;;-146.90;100.00;60518.97;5029530;28;20068;-75
2021/10/30 00:24:49;;;;;;;16.00;9.45;;;;;;;-146.90;100.00;60518.97;5028876;28;20021;-75
2021/10/30 00:27:14;;;;;;;12.65;7.55;;;;;;;-146.90;100.00;60518.97;5029518;28;20013;-74
2021/10/30 00:29:40;;;;;;;15.75;8.80;;;;;;;-146.90;100.00;60518.97;5029630;28;20109;-74
2021/10/30 00:32:06;;;;;;;12.07;8.07;;;;;;;-146.90;100.00;60518.97;5029103;28;20398;-73
2021/10/30 00:34:32;;;;;;;14.50;8.13;;;;;;;-146.90;100.00;60518.97;5028147;28;20530;-74
2021/10/30 00:36:57;;;;;;;12.95;8.00;;;;;;;-146.90;100.00;60518.97;5028621;28;20108;-74
2021/10/30 00:39:22;;;;;;;15.88;7.57;;;;;;;-146.90;100.00;60518.97;5029576;28;20108;-74
2021/10/30 00:41:49;;;;;;;15.38;7.53;;;;;;;-146.90;100.00;60518.97;5029009;28;20052;-74
2021/10/30 00:44:15;;;;;;;12.07;7.43;;;;;;;-146.90;100.00;60518.97;5028645;28;20041;-75
2021/10/30 00:46:45;;;;;;;11.88;7.13;;;;;;;-146.90;100.00;60518.97;5028975;28;20021;-76
2021/10/30 00:49:11;;;;;;;13.85;6.90;;;;;;;-146.90;100.00;60518.97;5023798;28;20026;-74
2021/10/30 00:51:38;;;;;;;11.65;6.25;;;;;;;-146.90;100.00;60518.97;5029263;28;20036;-74
2021/10/30 00:54:05;;;;;;;9.80;5.75;;;;;;;-146.90;100.00;60518.97;5027442;28;20039;-74
2021/10/30 00:56:31;;;;;;;9.43;6.20;;;;;;;-146.90;100.00;60518.97;5028328;28;20051;-74
2021/10/30 00:58:58;;;;;;;11.73;5.55;;;;;;;-146.90;100.00;60518.97;5028640;28;20022;-74
2021/10/30 01:01:24;;;;;;;12.90;6.20;;;;;;;-146.90;100.00;60518.97;5028618;28;20410;-74
2021/10/30 01:03:51;;;;;;;10.38;5.60;;;;;;;-146.90;100.00;60518.97;5028982;28;20024;-74
2021/10/30 01:06:17;;;;;;;9.77;5.47;;;;;;;-146.90;100.00;60518.97;5028833;28;20103;-74
2021/10/30 01:08:42;;;;;;;9.73;5.50;;;;;;;-146.90;100.00;60518.97;5029382;28;20029;-74
2021/10/30 01:11:09;;;;;;;10.48;5.40;;;;;;;-146.90;100.00;60518.97;5028588;28;20033;-74
2021/10/30 01:13:34;;;;;;;9.15;5.05;;;;;;;-146.90;100.00;60518.97;5029190;28;20112;-74
2021/10/30 01:15:59;;;;;;;10.65;5.65;;;;;;;-146.90;100.00;60518.97;5009368;28;20125;-75
2021/10/30 01:18:25;;;;;;;11.70;6.28;;;;;;;-146.90;100.00;60518.97;5029268;28;20521;-75
2021/10/30 01:20:52;;;;;;;12.38;5.95;;;;;;;-146.90;100.00;60518.97;5028832;28;20024;-75
2021/10/30 01:23:17;;;;;;;11.63;5.68;;;;;;;-146.90;100.00;60518.97;5028897;28;20029;-75
2021/10/30 01:25:45;;;;;;;15.98;6.65;;;;;;;-146.90;100.00;60518.97;5028233;28;20537;-75
2021/10/30 01:28:10;;;;;;;14.77;7.15;;;;;;;-146.90;100.00;60518.97;5029218;28;20024;-75
2021/10/30 01:30:36;;;;;;;11.10;6.95;;;;;;;-146.90;100.00;60518.97;5028467;28;20033;-75
2021/10/30 01:33:03;;;;;;;16.33;8.10;;;;;;;-146.90;100.00;60518.97;5028504;28;20029;-75
2021/10/30 01:35:32;;;;;;;14.40;8.00;;;;;;;-146.90;100.00;60518.97;5027746;28;20037;-74
2021/10/30 01:37:59;;;;;;;12.05;8.23;;;;;;;-146.90;100.00;60518.97;5028534;28;20741;-74
2021/10/30 01:40:25;;;;;;;15.73;8.70;;;;;;;-146.90;100.00;60518.97;5028324;28;20041;-74
2021/10/30 01:42:59;;;;;;;15.75;9.30;;;;;;;-146.90;100.00;60518.97;5026151;28;20025;-74
2021/10/30 01:45:25;;;;;;;15.02;8.65;;;;;;;-146.90;100.00;60518.97;5028241;28;20041;-74
2021/10/30 01:47:50;;;;;;;13.80;9.05;;;;;;;-146.90;100.00;60518.97;5026662;28;20464;-75
2021/10/30 01:50:15;;;;;;;13.07;8.60;;;;;;;-146.90;100.00;60518.97;5027186;28;20029;-75
2021/10/30 01:52:42;;;;;;;12.18;8.25;;;;;;;-146.90;100.00;60518.97;5028543;28;20487;-74
2021/10/30 01:55:11;;;;;;;12.68;8.77;;;;;;;-146.90;100.00;60518.97;5028263;28;20029;-75
2021/10/30 01:57:36;;;;;;;11.93;8.43;;;;;;;-146.90;100.00;60518.97;5026409;28;20495;-75
2021/10/30 02:00:06;;;;;;;13.60;8.23;;;;;;;-146.90;100.00;60518.97;5028677;28;20033;-75
2021/10/30 02:02:32;;;;;;;11.45;7.75;;;;;;;-146.90;100.00;60518.97;5028063;28;20087;-75
2021/10/30 02:04:57;;;;;;;11.07;7.45;;;;;;;-146.90;100.00;60518.97;5027657;28;20547;-74
2021/10/30 02:07:22;;;;;;;12.55;7.60;;;;;;;-146.90;100.00;60518.97;5028267;28;20047;-74
2021/10/30 02:09:48;;;;;;;9.02;6.35;;;;;;;-146.90;100.00;60518.97;5027976;28;20035;-74
2021/10/30 02:12:13;;;;;;;10.25;6.88;;;;;;;-146.90;100.00;60518.97;5027929;28;20109;-74
2021/10/30 02:14:38;;;;;;;9.05;6.60;;;;;;;-146.90;100.00;60518.97;5028141;28;20382;-73
2021/10/30 02:17:04;;;;;;;11.15;6.10;;;;;;;-146.90;100.00;60518.97;5026829;28;20412;-74
2021/10/30 02:19:29;;;;;;;13.13;7.20;;;;;;;-146.90;100.00;60518.97;5027078;28;20443;-74
2021/10/30 02:21:55;;;;;;;10.60;6.22;;;;;;;-146.90;100.00;60518.97;5028237;28;20391;-74
2021/10/30 02:24:21;;;;;;;9.10;6.40;;;;;;;-146.90;100.00;60518.97;5027764;28;20064;-74
2021/10/30 02:26:46;;;;;;;10.15;7.25;;;;;;;-146.90;100.00;60518.97;5031277;28;20049;-74
2021/10/30 02:29:11;;;;;;;9.98;6.68;;;;;;;-146.90;100.00;60518.97;5031657;28;20065;-74
2021/10/30 02:31:37;;;;;;;11.32;6.63;;;;;;;-146.90;100.00;60518.97;5030334;28;20036;-74
2021/10/30 02:34:02;;;;;;;10.70;7.85;;;;;;;-146.90;100.00;60518.97;5031590;28;20034;-74
2021/10/30 02:36:27;;;;;;;12.10;7.88;;;;;;;-146.90;100.00;60518.97;5029805;28;20041;-75
2021/10/30 02:38:53;;;;;;;14.73;7.50;;;;;;;-146.90;100.00;60518.97;5032052;28;20029;-75
2021/10/30 02:41:18;;;;;;;10.50;7.38;;;;;;;-146.90;100.00;60518.97;5031322;28;20391;-74
2021/10/30 02:43:43;;;;;;;13.48;8.30;;;;;;;-146.90;100.00;60518.97;5031066;28;20094;-74
2021/10/30 02:46:09;;;;;;;12.18;7.70;;;;;;;-146.90;100.00;60518.97;5030997;28;20076;-74
2021/10/30 02:48:34;;;;;;;12.07;8.65;;;;;;;-146.90;100.00;60518.97;5032203;28;20068;-74
2021/10/30 02:50:59;;;;;;;14.48;9.00;;;;;;;-146.90;100.00;60518.97;5031749;28;20535;-75
2021/10/30 02:53:25;;;;;;;12.38;8.18;;;;;;;-146.90;100.00;60518.97;5031609;28;20036;-75
2021/10/30 02:55:50;;;;;;;14.40;8.68;;;;;;;-146.90;100.00;60518.97;5029927;28;20028;-75
2021/10/30 02:58:16;;;;;;;14.77;8.23;;;;;;;-146.90;100.00;60518.97;5030256;28;20371;-75
2021/10/30 03:00:41;;;;;;;10.88;7.82;;;;;;;-146.90;100.00;60518.97;5030803;28;20089;-74
2021/10/30 03:03:06;;;;;;;14.40;8.48;;;;;;;-146.90;100.00;60518.97;5029946;28;20064;-74
2021/10/30 03:05:31;;;;;;;12.13;7.88;;;;;;;-146.90;100.00;60518.97;5028191;28;20053;-75
2021/10/30 03:07:57;;;;;;;13.70;8.05;;;;;;;-146.90;100.00;60518.97;5029335;28;20124;-75
2021/10/30 03:10:22;;;;;;;13.27;8.13;;;;;;;-146.90;100.00;60518.97;5031260;28;20091;-74
2021/10/30 03:12:48;;;;;;;14.77;8.13;;;;;;;-146.90;100.00;60518.97;5029759;28;20515;-74
2021/10/30 03:15:15;;;;;;;13.68;8.88;;;;;;;-146.90;100.00;60518.97;5030371;28;20030;-74
2021/10/30 03:17:40;;;;;;;14.27;8.20;;;;;;;-146.90;100.00;60518.97;5030826;28;20596;-76
2021/10/30 03:20:07;;;;;;;12.38;7.55;;;;;;;-146.90;100.00;60518.97;5030438;28;20040;-74
2021/10/30 03:22:33;;;;;;;12.73;7.13;;;;;;;-146.90;100.00;60518.97;5031099;28;20076;-74
2021/10/30 03:24:58;;;;;;;13.77;7.25;;;;;;;-146.90;100.00;60518.97;5029557;28;20562;-74
2021/10/30 03:27:27;;;;;;;14.77;6.97;;;;;;;-146.90;100.00;60518.97;5030909;28;20160;-74
2021/10/30 03:29:52;;;;;;;10.15;6.47;;;;;;;-146.90;100.00;60518.97;5029128;28;20302;-74
2021/10/30 03:32:17;;;;;;;13.55;6.95;;;;;;;-146.90;100.00;60518.97;5030217;28;20468;-74
2021/10/30 03:34:43;;;;;;;8.57;6.40;;;;;;;-146.90;100.00;60518.97;5030224;28;20120;-73
2021/10/30 03:37:08;;;;;;;10.20;6.82;;;;;;;-146.90;100.00;60518.97;5029393;28;20029;-75
2021/10/30 03:39:36;;;;;;;11.18;6.90;;;;;;;-146.90;100.00;60518.97;5029793;28;20026;-74
2021/10/30 03:42:01;;;;;;;10.65;6.93;;;;;;;-146.90;100.00;60518.97;5030632;28;20025;-74
2021/10/30 03:44:26;;;;;;;12.82;7.38;;;;;;;-146.90;100.00;60518.97;5029812;28;20546;-75
2021/10/30 03:46:52;;;;;;;10.60;7.40;;;;;;;-146.90;100.00;60518.97;5028250;28;20171;-74
2021/10/30 03:49:17;;;;;;;10.05;7.18;;;;;;;-146.90;100.00;60518.97;5029016;28;20100;-73
2021/10/30 03:51:44;;;;;;;14.20;7.50;;;;;;;-146.90;100.00;60518.97;5030110;28;20101;-73
2021/10/30 03:54:09;;;;;;;15.90;9.20;;;;;;;-146.90;100.00;60518.97;5030440;28;20402;-74
2021/10/30 03:56:34;;;;;;;12.90;8.05;;;;;;;-146.90;100.00;60518.97;5029801;28;20058;-75
2021/10/30 03:59:00;;;;;;;10.52;7.43;;;;;;;-146.90;100.00;60518.97;5029673;28;20483;-75
2021/10/30 04:01:27;;;;;;;10.43;7.78;;;;;;;-146.90;100.00;60518.97;5029395;28;20463;-74
2021/10/30 04:03:52;;;;;;;10.05;7.28;;;;;;;-146.90;100.00;60518.97;5030254;28;20052;-74
2021/10/30 04:06:18;;;;;;;11.15;7.75;;;;;;;-146.90;100.00;60518.97;5029347;28;20416;-74
2021/10/30 04:08:44;;;;;;;11.00;8.25;;;;;;;-146.90;100.00;60518.97;5029923;28;20024;-75
2021/10/30 04:11:10;;;;;;;15.10;7.90;;;;;;;-146.90;100.00;60518.97;5029533;28;20036;-75
2021/10/30 04:13:35;;;;;;;13.80;8.98;;;;;;;-146.90;100.00;60518.97;5030479;28;20037;-75
2021/10/30 04:16:00;;;;;;;13.93;8.43;;;;;;;-146.90;100.00;60518.97;5028339;28;20032;-73
2021/10/30 04:18:26;;;;;;;13.20;9.05;;;;;;;-146.90;100.00;60518.97;5029884;28;20474;-74
2021/10/30 04:20:51;;;;;;;13.98;9.35;;;;;;;-146.90;100.00;60518.97;5030213;28;20418;-74
2021/10/30 04:23:16;;;;;;;11.63;8.88;;;;;;;-146.90;100.00;60518.97;5029724;28;20443;-73
2021/10/30 04:25:42;;;;;;;12.00;8.43;;;;;;;-146.90;100.00;60518.97;5028935;28;20057;-74
2021/10/30 04:28:07;;;;;;;13.80;8.50;;;;;;;-146.90;100.00;60518.97;5030082;28;20112;-73
2021/10/30 04:30:32;;;;;;;14.73;9.55;;;;;;;-146.90;100.00;60518.97;5029383;28;20025;-75
2021/10/30 04:32:58;;;;;;;12.88;9.07;;;;;;;-146.90;100.00;60518.97;5028923;28;20292;-74
2021/10/30 04:35:23;;;;;;;13.55;9.10;;;;;;;-146.90;100.00;60518.97;5027339;28;20033;-74
2021/10/30 04:37:49;;;;;;;15.75;9.13;;;;;;;-146.90;100.00;60518.97;5029640;28;20033;-74
2021/10/30 04:40:14;;;;;;;18.40;10.00;;;;;;;-146.90;100.00;60518.97;5029383;28;20460;-74
2021/10/30 04:42:39;;;;;;;12.20;9.13;;;;;;;-146.90;100.00;60518.97;5028374;28;20025;-75
2021/10/30 04:45:05;;;;;;;12.70;9.38;;;;;;;-146.90;100.00;60518.97;5028662;28;20471;-74
2021/10/30 04:47:31;;;;;;;15.90;9.80;;;;;;;-146.90;100.00;60518.97;5028609;28;20029;-75
2021/10/30 04:49:56;;;;;;;16.38;10.25;;;;;;;-146.90;100.00;60518.97;5029111;28;20490;-75
2021/10/30 04:52:22;;;;;;;16.10;9.90;;;;;;;-146.90;100.00;60518.97;5029325;28;20068;-75
2021/10/30 04:54:47;;;;;;;14.27;10.23;;;;;;;-146.90;100.00;60518.97;5027504;28;20049;-75
2021/10/30 04:57:12;;;;;;;15.45;10.23;;;;;;;-146.90;100.00;60518.97;5028930;28;20064;-74
2021/10/30 04:59:38;;;;;;;15.10;9.98;;;;;;;-146.90;100.00;60518.97;5029007;28;20108;-76
2021/10/30 05:02:03;;;;;;;14.70;10.60;;;;;;;-146.90;100.00;60518.97;5028966;28;20037;-76
2021/10/30 05:04:29;;;;;;;15.35;10.40;;;;;;;-146.90;100.00;60518.97;5027653;28;20566;-76
2021/10/30 05:06:54;;;;;;;16.52;10.77;;;;;;;-146.90;100.00;60518.97;5027833;28;20021;-76
2021/10/30 05:09:20;;;;;;;13.25;10.32;;;;;;;-146.90;100.00;60518.97;5028940;28;20083;-76
2021/10/30 05:11:45;;;;;;;14.13;9.95;;;;;;;-146.90;100.00;60518.97;5028292;28;20034;-76
2021/10/30 05:14:10;;;;;;;15.25;10.60;;;;;;;-146.90;100.00;60518.97;5028705;28;20112;-76
2021/10/30 05:16:35;;;;;;;13.88;10.02;;;;;;;-146.90;100.00;60518.97;5028176;28;20021;-76
2021/10/30 05:19:01;;;;;;;15.63;10.60;;;;;;;-146.90;100.00;60518.97;5028975;28;20032;-76
2021/10/30 05:21:27;;;;;;;16.15;10.70;;;;;;;-146.90;100.00;60518.97;5028133;28;20112;-76
2021/10/30 05:23:55;;;;;;;17.15;10.73;;;;;;;-146.90;100.00;60518.97;5020293;28;20030;-76
2021/10/30 05:26:21;;;;;;;15.85;10.25;;;;;;;-146.90;100.00;60518.97;5008282;28;20041;-76
2021/10/30 05:28:46;;;;;;;14.35;9.98;;;;;;;-146.90;100.00;60518.97;5011193;28;20530;-77
2021/10/30 05:31:12;;;;;;;15.45;9.82;;;;;;;-146.90;100.00;60518.97;5018310;28;20083;-76
2021/10/30 05:33:37;;;;;;;14.98;10.27;;;;;;;-146.90;100.00;60518.97;5012525;28;20041;-77
2021/10/30 05:36:04;;;;;;;13.63;9.52;;;;;;;-146.90;100.00;60518.97;5012615;28;20099;-78
2021/10/30 05:38:30;;;;;;;15.32;9.18;;;;;;;-146.90;100.00;60518.97;5011454;28;20048;-78
2021/10/30 05:40:55;;;;;;;12.98;9.00;;;;;;;-146.90;100.00;60518.97;5008675;28;20439;-77
2021/10/30 05:43:21;;;;;;;15.00;9.60;;;;;;;-146.90;100.00;60518.97;5010881;28;20026;-75
2021/10/30 05:45:49;;;;;;;14.50;9.75;;;;;;;-146.90;100.00;60518.97;5027454;28;20025;-75
2021/10/30 05:48:15;;;;;;;14.88;8.85;;;;;;;-146.90;100.00;60518.97;5028591;28;20020;-74
2021/10/30 05:50:41;;;;;;;13.73;9.27;;;;;;;-146.90;100.00;60518.97;5026513;28;20033;-75
2021/10/30 05:53:07;;;;;;;14.23;8.88;;;;;;;-146.90;100.00;60518.97;5030644;28;20035;-75
2021/10/30 05:55:33;;;;;;;11.20;8.77;;;;;;;-146.90;100.00;60518.97;5031754;28;20037;-75
2021/10/30 05:57:59;;;;;;;13.07;8.98;;;;;;;-146.90;100.00;60518.97;5028534;28;20034;-77
2021/10/30 06:00:25;;;;;;;12.48;8.73;;;;;;;-146.90;100.00;60518.97;5028651;28;20108;-76
2021/10/30 06:02:50;;;;;;;14.85;9.00;;;;;;;-146.90;100.00;60518.97;5019013;28;20029;-78
2021/10/30 06:05:15;;;;;;;13.50;8.68;;;;;;;-146.90;100.00;60518.97;5031472;28;20437;-77
2021/10/30 06:07:41;;;;;;;13.27;8.70;;;;;;;-146.90;100.00;60518.97;5032295;28;20106;-78
2021/10/30 06:10:07;;;;;;;20.98;9.20;;;;;;;-146.90;100.00;60518.97;5030503;28;20017;-76
2021/10/30 06:12:37;;;;;;;12.05;8.95;;;;;;;-146.90;100.00;60518.97;5027692;28;20068;-77
2021/10/30 06:15:04;;;;;;;15.05;9.25;;;;;;;-146.90;100.00;60518.97;5024458;28;20468;-76
2021/10/30 06:17:30;;;;;;;16.23;9.00;;;;;;;-146.90;100.00;60518.97;5019163;28;20037;-75
2021/10/30 06:19:55;;;;;;;13.82;8.63;;;;;;;-146.90;100.00;60518.97;5026179;28;20030;-77
2021/10/30 06:22:21;;;;;;;12.05;8.68;;;;;;;-146.90;100.00;60518.97;5014468;28;20052;-76
2021/10/30 06:24:46;;;;;;;14.15;8.52;;;;;;;-146.90;100.00;60518.97;5028873;28;20034;-77
2021/10/30 06:27:12;;;;;;;13.05;8.57;;;;;;;-146.90;100.00;60518.97;5014206;28;20391;-77
2021/10/30 06:29:37;;;;;;;15.32;9.20;;;;;;;-146.90;100.00;60518.97;5024040;28;20042;-77
2021/10/30 06:32:03;;;;;;;14.63;8.85;;;;;;;-146.90;100.00;60518.97;5025109;28;20121;-77
2021/10/30 06:34:28;;;;;;;15.57;8.98;;;;;;;-146.90;100.00;60518.97;5016895;28;20038;-76
2021/10/30 06:36:54;;;;;;;16.02;9.68;;;;;;;-146.90;100.00;60518.97;5024326;28;20017;-76
2021/10/30 06:39:19;;;;;;;14.05;9.15;;;;;;;-146.90;100.00;60518.97;5014288;28;20455;-76
2021/10/30 06:41:46;;;;;;;13.38;8.88;;;;;;;-146.90;100.00;60518.97;5019007;28;20100;-76
2021/10/30 06:44:11;;;;;;;14.30;9.05;;;;;;;-146.90;100.00;60518.97;5013858;28;20518;-77
2021/10/30 06:46:36;;;;;;;14.88;8.82;;;;;;;-146.90;100.00;60518.97;5026143;28;20056;-76
2021/10/30 06:49:02;;;;;;;14.85;8.70;;;;;;;-146.90;100.00;60518.97;5031801;28;20378;-77
2021/10/30 06:51:27;;;;;;;17.52;8.80;;;;;;;-146.90;100.00;60518.97;5029709;28;20029;-78
2021/10/30 06:53:52;;;;;;;17.15;9.27;;;;;;;-146.90;100.00;60518.97;5031152;28;20021;-77
2021/10/30 06:56:19;;;;;;;20.55;9.15;;;;;;;-146.90;100.00;60518.97;5029893;28;20108;-76
2021/10/30 06:58:45;;;;;;;15.88;8.23;;;;;;;-146.90;100.00;60518.97;5030509;28;20030;-76
2021/10/30 07:01:12;;;;;;;13.27;8.00;;;;;;;-146.90;100.00;60518.97;5030276;28;20031;-78
2021/10/30 07:03:38;;;;;;;11.82;7.40;;;;;;;-146.90;100.00;60518.97;5024981;28;20040;-77
2021/10/30 07:06:03;;;;;;;12.85;7.70;;;;;;;-146.90;100.00;60518.97;5031091;28;20029;-77
2021/10/30 07:08:28;;;;;;;11.15;6.85;;;;;;;-146.90;100.00;60518.97;5029887;28;20038;-77
2021/10/30 07:10:54;;;;;;;14.45;6.95;;;;;;;-146.90;100.00;60518.97;5028758;28;20175;-78
2021/10/30 07:13:19;;;;;;;11.30;6.25;;;;;;;-146.90;100.00;60518.97;5019066;28;20030;-80
2021/10/30 07:15:46;;;;;;;15.10;6.80;;;;;;;-146.90;100.00;60518.97;5029258;28;20411;-83
2021/10/30 07:18:12;;;;;;;9.05;6.00;;;;;;;-146.90;100.00;60518.97;5029930;28;20045;-81
2021/10/30 07:20:37;;;;;;;11.02;6.57;;;;;;;-146.90;100.00;60518.97;5028505;28;20080;-81
2021/10/30 07:23:03;;;;;;;12.93;6.75;;;;;;;-146.90;100.00;60518.97;5018768;28;20021;-80
2021/10/30 07:25:28;;;;;;;12.73;6.97;;;;;;;-146.90;100.00;60518.97;5022939;28;20040;-86
2021/10/30 07:27:53;;;;;;;12.10;6.75;;;;;;;-146.90;100.00;60518.97;5018200;28;20521;-84
2021/10/30 07:30:19;;;;;;;16.70;7.35;;;;;;;-146.90;100.00;60518.97;5025470;28;20021;-84
2021/10/30 07:32:50;;;;;;;11.55;6.35;;;;;;;-146.90;100.00;60518.97;5018606;28;20033;-83
2021/10/30 07:35:15;;;;;;;11.88;6.55;;;;;;;-146.90;100.00;60518.97;5010952;28;20391;-83
2021/10/30 07:37:42;;;;;;;15.93;8.32;;;;;;;-146.90;100.00;60518.97;5016276;28;20033;-82
2021/10/30 07:40:08;;;;;;;17.25;8.50;;;;;;;-146.90;100.00;60518.97;5014747;28;20026;-77
2021/10/30 07:42:33;;;;;;;12.63;7.68;;;;;;;-146.90;100.00;60518.97;5022581;28;20041;-79
2021/10/30 07:44:59;;;;;;;14.95;7.75;;;;;;;-146.90;100.00;60518.97;5035784;28;20021;-78
2021/10/30 07:47:24;;;;;;;11.73;6.82;;;;;;;-146.90;100.00;60518.97;5022417;28;20037;-78
2021/10/30 07:49:49;;;;;;;13.05;8.00;;;;;;;-146.90;100.00;60518.97;5026590;28;20076;-77
2021/10/30 07:52:15;;;;;;;13.55;7.80;;;;;;;-146.90;100.00;60518.97;5021230;28;20113;-80
2021/10/30 07:54:40;;;;;;;13.63;8.80;;;;;;;-146.90;100.00;60518.97;5028832;28;20475;-79
2021/10/30 07:57:07;;;;;;;12.23;8.13;;;;;;;-146.90;100.00;60518.97;5029397;28;20108;-81
2021/10/30 07:59:32;;;;;;;12.88;8.20;;;;;;;-146.90;100.00;60518.97;5028737;28;20437;-80
2021/10/30 08:01:58;;;;;;;14.93;8.07;;;;;;;-146.90;100.00;60518.97;5028681;28;20029;-80
2021/10/30 08:04:24;;;;;;;15.07;8.63;;;;;;;-146.90;100.00;60518.97;5024619;28;20036;-80
2021/10/30 08:06:49;;;;;;;13.57;8.20;;;;;;;-146.90;100.00;60518.97;5026954;28;20021;-77
2021/10/30 08:09:15;;;;;;;13.95;7.35;;;;;;;-146.90;100.00;60518.97;5021250;28;20058;-78
2021/10/30 08:11:40;;;;;;;13.82;7.97;;;;;;;-146.90;100.00;60518.97;5013653;28;20033;-77
2021/10/30 08:14:06;;;;;;;11.15;6.90;;;;;;;-146.90;100.00;60518.97;5010052;28;20110;-82
2021/10/30 08:16:31;;;;;;;10.93;6.35;;;;;;;-146.90;100.00;60518.97;5012581;28;20030;-82
2021/10/30 08:18:57;;;;;;;11.10;6.60;;;;;;;-146.90;100.00;60518.97;5011852;28;20049;-78
2021/10/30 08:21:22;;;;;;;11.18;6.03;;;;;;;-146.90;100.00;60518.97;5011967;28;20108;-82
2021/10/30 08:23:49;;;;;;;12.70;5.85;;;;;;;-146.90;100.00;60518.97;5016696;28;20060;-77
2021/10/30 08:26:14;;;;;;;13.70;7.45;;;;;;;-146.90;100.00;60518.97;5028505;28;20017;-80
2021/10/30 08:28:40;;;;;;;8.00;5.50;;;;;;;-146.90;100.00;60518.97;5029930;28;20505;-75
2021/10/30 08:31:05;;;;;;;10.07;5.53;;;;;;;-146.90;100.00;60518.97;5027928;28;20028;-77
2021/10/30 08:33:30;;;;;;;8.88;5.25;;;;;;;-146.90;100.00;60518.97;5027944;28;20037;-76
2021/10/30 08:35:56;;;;;;;6.55;4.63;;;;;;;-146.90;100.00;60518.97;5029198;28;20052;-78
2021/10/30 08:38:21;;;;;;;8.82;5.05;;;;;;;-146.90;100.00;60518.97;5028259;28;20748;-77
2021/10/30 08:40:47;;;;;;;6.53;4.70;;;;;;;-146.90;100.00;60518.97;5027384;28;20029;-75
2021/10/30 08:43:23;;;;;;;8.40;4.75;;;;;;;-146.90;100.00;60518.97;5028137;28;20028;-77
2021/10/30 08:45:50;;;;;;;8.40;5.00;;;;;;;-146.90;100.00;60518.97;5028797;28;20025;-77
2021/10/30 08:48:18;;;;;;;9.85;4.70;;;;;;;-146.90;100.00;60518.97;5023200;28;20028;-77
2021/10/30 08:50:43;;;;;;;6.72;4.40;;;;;;;-146.90;100.00;60518.97;5029088;28;20046;-79
2021/10/30 08:53:09;;;;;;;9.52;4.88;;;;;;;-146.90;100.00;60518.97;5027432;28;20029;-77
2021/10/30 08:55:34;;;;;;;6.40;4.40;;;;;;;-146.90;100.00;60518.97;5032237;28;20724;-80
2021/10/30 08:58:11;;;;;;;10.80;5.10;;;;;;;-146.90;100.00;60518.97;5028244;28;20156;-80
2021/10/30 09:00:42;;;;;;;6.75;4.30;;;;;;;-146.90;100.00;60518.97;5027892;28;20060;-81
2021/10/30 09:03:09;;;;;;;7.85;4.43;;;;;;;-146.90;100.00;60518.97;5029386;28;20071;-84
2021/10/30 09:05:34;;;;;;;11.15;4.43;;;;;;;-146.90;100.00;60518.97;5028112;28;20128;-86
2021/10/30 09:08:02;;;;;;;7.90;4.70;;;;;;;-146.90;100.00;60518.97;5028371;28;20021;-85
2021/10/30 09:10:30;;;;;;;10.77;4.47;;;;;;;-146.90;100.00;60518.97;5028353;28;20021;-88
2021/10/30 09:13:00;;;;;;;7.38;4.57;;;;;;;-146.90;100.00;60518.97;5029595;28;20048;-86
2021/10/30 09:15:47;;;;;;;7.85;4.18;;;;;;;-146.90;100.00;60518.97;5027871;28;20645;-89
2021/10/30 09:18:38;;;;;;;9.15;4.72;;;;;;;-146.90;100.00;60518.97;5026842;28;20045;-83
2021/10/30 09:21:03;;;;;;;8.52;4.80;;;;;;;-146.90;100.00;60518.97;5019084;28;20033;-88
2021/10/30 09:23:34;;;;;;;11.13;4.40;;;;;;;-146.90;100.00;60518.97;5027724;28;20080;-83
2021/10/30 09:26:02;;;;;;;10.38;4.65;;;;;;;-146.90;100.00;60518.97;5016122;28;20360;-83
2021/10/30 09:28:52;;;;;;;7.00;4.40;;;;;;;-146.90;100.00;60518.97;5009142;28;20428;-82
2021/10/30 09:31:19;;;;;;;11.80;5.00;;;;;;;-146.90;100.00;60518.97;5019358;28;20028;-82
2021/10/30 09:34:02;;;;;;;7.05;4.63;;;;;;;-146.90;100.00;60518.97;5011171;28;20451;-81
2021/10/30 09:36:43;;;;;;;9.07;4.90;;;;;;;-146.90;100.00;60518.97;5020808;28;20022;-81
2021/10/30 09:39:14;;;;;;;7.10;4.63;;;;;;;-146.90;100.00;60518.97;5029050;28;20032;-86
2021/10/30 09:41:51;;;;;;;7.45;4.85;;;;;;;-146.90;100.00;60518.97;5027372;28;20030;-81
2021/10/30 09:44:22;;;;;;;8.63;4.70;;;;;;;-146.90;100.00;60518.97;5023924;28;20029;-82
2021/10/30 09:46:55;;;;;;;7.72;4.60;;;;;;;-146.90;100.00;60518.97;5021427;28;20026;-82
2021/10/30 09:49:29;;;;;;;7.78;4.60;;;;;;;-146.90;100.00;60518.97;5026531;28;20032;-82
2021/10/30 09:51:55;;;;;;;8.75;4.40;;;;;;;-146.90;100.00;60518.97;5039859;28;20033;-82
2021/10/30 09:54:33;;;;;;;9.38;4.50;;;;;;;-146.90;100.00;60518.97;5046709;28;20021;-82
2021/10/30 09:56:59;;;;;;;10.63;4.60;;;;;;;-146.90;100.00;60518.97;5029559;28;20029;-84
2021/10/30 09:59:25;;;;;;;6.63;4.32;;;;;;;-146.90;100.00;60518.97;5023096;28;20064;-82
2021/10/30 10:01:50;;;;;;;6.40;4.15;;;;;;;-146.90;100.00;60518.97;5009863;28;20021;-82
2021/10/30 10:04:19;;;;;;;9.10;4.80;;;;;;;-146.90;100.00;60518.97;5024840;28;20022;-79
2021/10/30 10:06:46;;;;;;;6.75;4.57;;;;;;;-146.90;100.00;60518.97;5027939;28;20357;-81
2021/10/30 10:09:12;;;;;;;10.73;4.70;;;;;;;-146.90;100.00;60518.97;5026906;28;20429;-81
2021/10/30 10:11:41;;;;;;;6.32;4.22;;;;;;;-146.90;100.00;60518.97;5027074;28;20539;-83
2021/10/30 10:14:06;;;;;;;10.75;4.50;;;;;;;-146.90;100.00;60518.97;5027136;28;20529;-83
2021/10/30 10:16:32;;;;;;;7.35;4.47;;;;;;;-146.90;100.00;60518.97;5026493;28;20017;-83
2021/10/30 10:18:59;;;;;;;8.50;4.82;;;;;;;-146.90;100.00;60518.97;5009833;28;20638;-80
2021/10/30 10:21:32;;;;;;;7.97;4.70;;;;;;;-146.90;100.00;60518.97;5025988;28;20026;-82
2021/10/30 10:24:03;;;;;;;6.90;4.20;;;;;;;-146.90;100.00;60518.97;5014719;28;20025;-79
2021/10/30 10:26:51;;;;;;;8.23;4.47;;;;;;;-146.90;100.00;60518.97;5027534;28;20045;-80
2021/10/30 10:29:29;;;;;;;8.48;4.45;;;;;;;-146.90;100.00;60518.97;5026560;28;20025;-78
2021/10/30 10:31:54;;;;;;;6.80;4.15;;;;;;;-146.90;100.00;60518.97;5027675;28;20062;-78
2021/10/30 10:34:24;;;;;;;6.25;3.90;;;;;;;-146.90;100.00;60518.97;5027778;28;20032;-78
2021/10/30 10:37:20;;;;;;;8.30;3.95;;;;;;;-146.90;100.00;60518.97;5026167;28;20028;-79
2021/10/30 10:39:52;;;;;;;7.78;4.40;;;;;;;-146.90;100.00;60518.97;5027998;28;20036;-80
2021/10/30 10:42:36;;;;;;;6.03;3.83;;;;;;;-146.90;100.00;60518.97;5027500;28;20092;-79
2021/10/30 10:45:22;;;;;;;;;;;;;;;-146.90;100.00;60518.97;5028014;28;20481;-79
2021/10/30 10:47:54;;;;;;;5.30;3.92;;;;;;;-146.90;100.00;60518.97;5030224;28;19924;-84
2021/10/30 10:50:27;;;;;;;5.38;3.60;;;;;;;-146.90;100.00;60518.97;5030486;28;20087;-85
2021/10/30 10:52:59;;;;;;;6.55;3.53;;;;;;;-146.90;100.00;60518.97;5030673;28;20596;-84
2021/10/30 10:55:25;;;;;;;6.00;3.90;;;;;;;-146.90;100.00;60518.97;5031906;28;20045;-86
2021/10/30 10:57:51;;;;;;;7.20;3.85;;;;;;;-146.90;100.00;60518.97;5024032;28;20081;-82
2021/10/30 11:00:20;;;;;;;7.72;4.05;;;;;;;-146.90;100.00;60518.97;5026943;28;20037;-82